Terminal Aerodrome Forecast
Issued by NWS Wakefield, VA

Home | Current Version | Previous Version | Text Only | Print | Product List | Glossary On
Versions: 1 2 3 4 5 6 7 8 9 10 11 12 13 14 15 16 17 18 19 20 21 22 23 24 25 26
000
FTUS41 KAKQ 281738
TAFRIC
TAF
KRIC 281738Z 2818/2918 20006KT P6SM SCT035
     FM290200 16006KT P6SM SKC
     FM291200 21008KT P6SM SCT012
     FM291600 22009G17KT P6SM SCT040=

USA.gov is the U.S. government's official web portal to all federal, state and local government web resources and services.